sensor_id;sensor_type;location;lat;lon;timestamp;P1;durP1;ratioP1;P2;durP2;ratioP2
27889;SDS011;15238;49.082;9.102;2023-05-20T00:01:23;5.43;;;3.15;;
27889;SDS011;15238;49.082;9.102;2023-05-20T00:03:23;11.35;;;3.80;;
27889;SDS011;15238;49.082;9.102;2023-05-20T00:05:24;3.95;;;3.30;;
27889;SDS011;15238;49.082;9.102;2023-05-20T00:07:24;10.88;;;3.70;;
27889;SDS011;15238;49.082;9.102;2023-05-20T00:09:25;7.45;;;3.28;;
27889;SDS011;15238;49.082;9.102;2023-05-20T00:11:26;5.55;;;3.40;;
27889;SDS011;15238;49.082;9.102;2023-05-20T00:13:26;5.80;;;3.28;;
27889;SDS011;15238;49.082;9.102;2023-05-20T00:15:27;6.18;;;3.55;;
27889;SDS011;15238;49.082;9.102;2023-05-20T00:17:29;6.13;;;3.00;;
27889;SDS011;15238;49.082;9.102;2023-05-20T00:19:30;4.47;;;3.08;;
27889;SDS011;15238;49.082;9.102;2023-05-20T00:21:30;6.00;;;3.22;;
27889;SDS011;15238;49.082;9.102;2023-05-20T00:23:32;7.45;;;3.00;;
27889;SDS011;15238;49.082;9.102;2023-05-20T00:25:33;6.25;;;2.75;;
27889;SDS011;15238;49.082;9.102;2023-05-20T00:27:33;5.47;;;3.00;;
27889;SDS011;15238;49.082;9.102;2023-05-20T00:29:34;9.55;;;3.13;;
27889;SDS011;15238;49.082;9.102;2023-05-20T00:31:34;5.57;;;3.20;;
27889;SDS011;15238;49.082;9.102;2023-05-20T00:33:35;8.00;;;3.05;;
27889;SDS011;15238;49.082;9.102;2023-05-20T00:35:36;6.20;;;3.05;;
27889;SDS011;15238;49.082;9.102;2023-05-20T00:37:37;5.32;;;3.45;;
27889;SDS011;15238;49.082;9.102;2023-05-20T00:39:37;4.93;;;3.00;;
27889;SDS011;15238;49.082;9.102;2023-05-20T00:41:38;4.28;;;2.45;;
27889;SDS011;15238;49.082;9.102;2023-05-20T00:43:38;4.57;;;2.88;;
27889;SDS011;15238;49.082;9.102;2023-05-20T00:45:39;4.35;;;2.78;;
27889;SDS011;15238;49.082;9.102;2023-05-20T00:47:40;4.15;;;2.70;;
27889;SDS011;15238;49.082;9.102;2023-05-20T00:49:42;4.88;;;2.60;;
27889;SDS011;15238;49.082;9.102;2023-05-20T00:51:47;4.85;;;2.80;;
27889;SDS011;15238;49.082;9.102;2023-05-20T00:53:48;6.88;;;2.90;;
27889;SDS011;15238;49.082;9.102;2023-05-20T00:55:50;4.15;;;3.00;;
27889;SDS011;15238;49.082;9.102;2023-05-20T00:57:51;9.32;;;3.33;;
27889;SDS011;15238;49.082;9.102;2023-05-20T00:59:52;5.05;;;2.78;;
27889;SDS011;15238;49.082;9.102;2023-05-20T01:01:53;4.68;;;2.70;;
27889;SDS011;15238;49.082;9.102;2023-05-20T01:03:55;9.27;;;2.75;;
27889;SDS011;15238;49.082;9.102;2023-05-20T01:05:55;4.18;;;2.58;;
27889;SDS011;15238;49.082;9.102;2023-05-20T01:07:56;4.93;;;2.70;;
27889;SDS011;15238;49.082;9.102;2023-05-20T01:09:56;3.67;;;2.53;;
27889;SDS011;15238;49.082;9.102;2023-05-20T01:14:05;6.45;;;2.70;;
27889;SDS011;15238;49.082;9.102;2023-05-20T01:16:07;5.05;;;2.97;;
27889;SDS011;15238;49.082;9.102;2023-05-20T01:18:10;6.20;;;2.22;;
27889;SDS011;15238;49.082;9.102;2023-05-20T01:20:15;7.35;;;3.10;;
27889;SDS011;15238;49.082;9.102;2023-05-20T01:22:17;6.53;;;2.78;;
27889;SDS011;15238;49.082;9.102;2023-05-20T01:24:18;3.35;;;2.53;;
27889;SDS011;15238;49.082;9.102;2023-05-20T01:26:19;5.72;;;2.88;;
27889;SDS011;15238;49.082;9.102;2023-05-20T01:28:20;8.10;;;2.80;;
27889;SDS011;15238;49.082;9.102;2023-05-20T01:30:21;5.28;;;2.60;;
27889;SDS011;15238;49.082;9.102;2023-05-20T01:33:00;5.05;;;2.97;;
27889;SDS011;15238;49.082;9.102;2023-05-20T01:34:54;4.95;;;2.45;;
27889;SDS011;15238;49.082;9.102;2023-05-20T01:36:55;4.55;;;2.40;;
27889;SDS011;15238;49.082;9.102;2023-05-20T01:38:57;4.80;;;2.97;;
27889;SDS011;15238;49.082;9.102;2023-05-20T01:40:59;4.65;;;3.03;;
27889;SDS011;15238;49.082;9.102;2023-05-20T01:43:01;8.30;;;2.90;;
27889;SDS011;15238;49.082;9.102;2023-05-20T01:45:02;3.90;;;2.63;;
27889;SDS011;15238;49.082;9.102;2023-05-20T01:47:03;3.75;;;2.60;;
27889;SDS011;15238;49.082;9.102;2023-05-20T01:49:04;3.60;;;2.33;;
27889;SDS011;15238;49.082;9.102;2023-05-20T01:51:04;5.13;;;3.15;;
27889;SDS011;15238;49.082;9.102;2023-05-20T01:53:05;3.47;;;2.58;;
27889;SDS011;15238;49.082;9.102;2023-05-20T01:55:08;4.05;;;2.78;;
27889;SDS011;15238;49.082;9.102;2023-05-20T01:57:09;3.22;;;2.30;;
27889;SDS011;15238;49.082;9.102;2023-05-20T01:59:09;4.60;;;2.97;;
27889;SDS011;15238;49.082;9.102;2023-05-20T02:01:10;3.97;;;2.58;;
27889;SDS011;15238;49.082;9.102;2023-05-20T02:03:10;4.80;;;3.05;;
27889;SDS011;15238;49.082;9.102;2023-05-20T02:05:11;6.03;;;3.03;;
27889;SDS011;15238;49.082;9.102;2023-05-20T02:07:12;4.28;;;2.65;;
27889;SDS011;15238;49.082;9.102;2023-05-20T02:09:13;3.10;;;2.53;;
27889;SDS011;15238;49.082;9.102;2023-05-20T02:11:14;7.95;;;3.08;;
27889;SDS011;15238;49.082;9.102;2023-05-20T02:13:14;6.88;;;2.83;;
27889;SDS011;15238;49.082;9.102;2023-05-20T02:15:15;5.28;;;2.90;;
27889;SDS011;15238;49.082;9.102;2023-05-20T02:17:16;3.35;;;2.88;;
27889;SDS011;15238;49.082;9.102;2023-05-20T02:19:17;4.88;;;2.90;;
27889;SDS011;15238;49.082;9.102;2023-05-20T02:21:22;6.68;;;2.80;;
27889;SDS011;15238;49.082;9.102;2023-05-20T02:23:23;3.05;;;2.63;;
27889;SDS011;15238;49.082;9.102;2023-05-20T02:25:23;5.55;;;2.75;;
27889;SDS011;15238;49.082;9.102;2023-05-20T02:27:24;4.30;;;3.15;;
27889;SDS011;15238;49.082;9.102;2023-05-20T02:29:24;4.78;;;2.78;;
27889;SDS011;15238;49.082;9.102;2023-05-20T02:31:25;3.20;;;2.55;;
27889;SDS011;15238;49.082;9.102;2023-05-20T02:33:26;3.78;;;2.60;;
27889;SDS011;15238;49.082;9.102;2023-05-20T02:35:27;6.65;;;2.80;;
27889;SDS011;15238;49.082;9.102;2023-05-20T02:37:28;6.57;;;2.95;;
27889;SDS011;15238;49.082;9.102;2023-05-20T02:39:28;4.68;;;3.20;;
27889;SDS011;15238;49.082;9.102;2023-05-20T02:41:29;3.97;;;2.97;;
27889;SDS011;15238;49.082;9.102;2023-05-20T02:43:30;3.50;;;2.72;;
27889;SDS011;15238;49.082;9.102;2023-05-20T02:45:31;3.97;;;2.90;;
27889;SDS011;15238;49.082;9.102;2023-05-20T02:47:32;4.28;;;2.95;;
27889;SDS011;15238;49.082;9.102;2023-05-20T02:49:32;6.82;;;2.90;;
27889;SDS011;15238;49.082;9.102;2023-05-20T02:51:33;5.00;;;2.97;;
27889;SDS011;15238;49.082;9.102;2023-05-20T02:53:33;3.15;;;2.42;;
27889;SDS011;15238;49.082;9.102;2023-05-20T02:55:34;3.92;;;2.85;;
27889;SDS011;15238;49.082;9.102;2023-05-20T02:57:35;6.15;;;3.00;;
27889;SDS011;15238;49.082;9.102;2023-05-20T02:59:37;6.13;;;3.20;;
27889;SDS011;15238;49.082;9.102;2023-05-20T03:01:37;6.15;;;3.17;;
27889;SDS011;15238;49.082;9.102;2023-05-20T03:03:39;8.55;;;3.38;;
27889;SDS011;15238;49.082;9.102;2023-05-20T03:05:40;4.28;;;3.13;;
27889;SDS011;15238;49.082;9.102;2023-05-20T03:07:41;4.60;;;2.90;;
27889;SDS011;15238;49.082;9.102;2023-05-20T03:09:41;3.90;;;2.63;;
27889;SDS011;15238;49.082;9.102;2023-05-20T03:11:42;5.53;;;3.53;;
27889;SDS011;15238;49.082;9.102;2023-05-20T03:13:43;7.32;;;3.03;;
27889;SDS011;15238;49.082;9.102;2023-05-20T03:15:43;4.80;;;2.78;;
27889;SDS011;15238;49.082;9.102;2023-05-20T03:17:44;4.97;;;2.75;;
27889;SDS011;15238;49.082;9.102;2023-05-20T03:19:44;7.40;;;3.22;;
27889;SDS011;15238;49.082;9.102;2023-05-20T03:21:45;4.63;;;2.83;;
27889;SDS011;15238;49.082;9.102;2023-05-20T03:23:46;5.03;;;2.97;;
27889;SDS011;15238;49.082;9.102;2023-05-20T03:25:47;6.75;;;2.85;;
27889;SDS011;15238;49.082;9.102;2023-05-20T03:27:48;6.15;;;3.35;;
27889;SDS011;15238;49.082;9.102;2023-05-20T03:29:48;5.28;;;3.13;;
27889;SDS011;15238;49.082;9.102;2023-05-20T03:31:49;6.28;;;3.63;;
27889;SDS011;15238;49.082;9.102;2023-05-20T03:33:49;6.25;;;3.15;;
27889;SDS011;15238;49.082;9.102;2023-05-20T03:35:50;3.83;;;2.92;;
27889;SDS011;15238;49.082;9.102;2023-05-20T03:37:50;10.50;;;3.47;;
27889;SDS011;15238;49.082;9.102;2023-05-20T03:39:52;6.13;;;3.38;;
27889;SDS011;15238;49.082;9.102;2023-05-20T03:41:52;5.03;;;3.45;;
27889;SDS011;15238;49.082;9.102;2023-05-20T03:43:53;5.00;;;3.20;;
27889;SDS011;15238;49.082;9.102;2023-05-20T03:45:53;4.93;;;3.40;;
27889;SDS011;15238;49.082;9.102;2023-05-20T03:47:54;4.80;;;3.17;;
27889;SDS011;15238;49.082;9.102;2023-05-20T03:49:55;5.25;;;3.20;;
27889;SDS011;15238;49.082;9.102;2023-05-20T03:51:55;8.57;;;3.60;;
27889;SDS011;15238;49.082;9.102;2023-05-20T03:53:56;5.38;;;3.30;;
27889;SDS011;15238;49.082;9.102;2023-05-20T03:55:56;5.90;;;3.33;;
27889;SDS011;15238;49.082;9.102;2023-05-20T03:57:57;9.10;;;3.25;;
27889;SDS011;15238;49.082;9.102;2023-05-20T03:59:57;6.70;;;3.30;;
27889;SDS011;15238;49.082;9.102;2023-05-20T04:01:58;6.05;;;3.08;;
27889;SDS011;15238;49.082;9.102;2023-05-20T04:03:58;4.00;;;3.25;;
27889;SDS011;15238;49.082;9.102;2023-05-20T04:05:59;6.72;;;3.70;;
27889;SDS011;15238;49.082;9.102;2023-05-20T04:07:59;4.50;;;3.25;;
27889;SDS011;15238;49.082;9.102;2023-05-20T04:10:00;5.15;;;3.33;;
27889;SDS011;15238;49.082;9.102;2023-05-20T04:12:01;5.05;;;3.40;;
27889;SDS011;15238;49.082;9.102;2023-05-20T04:14:02;5.25;;;3.55;;
27889;SDS011;15238;49.082;9.102;2023-05-20T04:16:02;4.47;;;3.47;;
27889;SDS011;15238;49.082;9.102;2023-05-20T04:18:04;6.05;;;3.60;;
27889;SDS011;15238;49.082;9.102;2023-05-20T04:20:05;5.90;;;3.28;;
27889;SDS011;15238;49.082;9.102;2023-05-20T04:22:06;8.50;;;3.50;;
27889;SDS011;15238;49.082;9.102;2023-05-20T04:24:07;4.43;;;3.60;;
27889;SDS011;15238;49.082;9.102;2023-05-20T04:26:07;4.05;;;3.10;;
27889;SDS011;15238;49.082;9.102;2023-05-20T04:28:08;6.43;;;3.55;;
27889;SDS011;15238;49.082;9.102;2023-05-20T04:30:09;7.38;;;3.92;;
27889;SDS011;15238;49.082;9.102;2023-05-20T04:32:15;5.55;;;4.07;;
27889;SDS011;15238;49.082;9.102;2023-05-20T04:34:17;6.82;;;3.75;;
27889;SDS011;15238;49.082;9.102;2023-05-20T04:36:19;4.22;;;3.35;;
27889;SDS011;15238;49.082;9.102;2023-05-20T04:38:19;4.90;;;3.78;;
27889;SDS011;15238;49.082;9.102;2023-05-20T04:40:20;4.70;;;3.42;;
27889;SDS011;15238;49.082;9.102;2023-05-20T04:42:21;6.57;;;3.67;;
27889;SDS011;15238;49.082;9.102;2023-05-20T04:44:22;6.57;;;3.75;;
27889;SDS011;15238;49.082;9.102;2023-05-20T04:46:23;8.00;;;3.95;;
27889;SDS011;15238;49.082;9.102;2023-05-20T04:48:24;5.00;;;3.67;;
27889;SDS011;15238;49.082;9.102;2023-05-20T04:50:25;10.07;;;4.15;;
27889;SDS011;15238;49.082;9.102;2023-05-20T04:52:26;8.15;;;4.05;;
27889;SDS011;15238;49.082;9.102;2023-05-20T04:54:26;6.93;;;3.97;;
27889;SDS011;15238;49.082;9.102;2023-05-20T04:56:27;6.03;;;4.25;;
27889;SDS011;15238;49.082;9.102;2023-05-20T04:58:27;7.85;;;4.00;;
27889;SDS011;15238;49.082;9.102;2023-05-20T05:00:29;8.90;;;3.88;;
27889;SDS011;15238;49.082;9.102;2023-05-20T05:02:29;5.80;;;3.88;;
27889;SDS011;15238;49.082;9.102;2023-05-20T05:04:30;5.82;;;3.85;;
27889;SDS011;15238;49.082;9.102;2023-05-20T05:06:30;5.72;;;4.00;;
27889;SDS011;15238;49.082;9.102;2023-05-20T05:08:31;5.03;;;3.97;;
27889;SDS011;15238;49.082;9.102;2023-05-20T05:10:31;4.95;;;3.83;;
27889;SDS011;15238;49.082;9.102;2023-05-20T05:12:32;5.88;;;4.50;;
27889;SDS011;15238;49.082;9.102;2023-05-20T05:14:32;6.97;;;3.88;;
27889;SDS011;15238;49.082;9.102;2023-05-20T05:16:33;7.78;;;4.13;;
27889;SDS011;15238;49.082;9.102;2023-05-20T05:18:33;5.82;;;4.30;;
27889;SDS011;15238;49.082;9.102;2023-05-20T05:20:34;6.75;;;4.50;;
27889;SDS011;15238;49.082;9.102;2023-05-20T05:22:35;7.32;;;4.93;;
27889;SDS011;15238;49.082;9.102;2023-05-20T05:24:36;9.18;;;5.55;;
27889;SDS011;15238;49.082;9.102;2023-05-20T05:26:37;10.48;;;5.43;;
27889;SDS011;15238;49.082;9.102;2023-05-20T05:28:40;8.05;;;5.10;;
27889;SDS011;15238;49.082;9.102;2023-05-20T05:30:42;8.20;;;4.55;;
27889;SDS011;15238;49.082;9.102;2023-05-20T05:32:42;9.07;;;4.47;;
27889;SDS011;15238;49.082;9.102;2023-05-20T05:34:43;6.30;;;4.25;;
27889;SDS011;15238;49.082;9.102;2023-05-20T05:36:44;6.10;;;4.43;;
27889;SDS011;15238;49.082;9.102;2023-05-20T05:38:44;5.95;;;3.40;;
27889;SDS011;15238;49.082;9.102;2023-05-20T05:40:45;6.40;;;3.90;;
27889;SDS011;15238;49.082;9.102;2023-05-20T05:42:45;7.57;;;4.25;;
27889;SDS011;15238;49.082;9.102;2023-05-20T05:44:46;6.22;;;3.95;;
27889;SDS011;15238;49.082;9.102;2023-05-20T05:46:47;6.90;;;4.53;;
27889;SDS011;15238;49.082;9.102;2023-05-20T05:48:48;6.85;;;4.15;;
27889;SDS011;15238;49.082;9.102;2023-05-20T05:50:49;6.35;;;4.50;;
27889;SDS011;15238;49.082;9.102;2023-05-20T05:52:50;5.75;;;3.88;;
27889;SDS011;15238;49.082;9.102;2023-05-20T05:54:50;5.25;;;3.90;;
27889;SDS011;15238;49.082;9.102;2023-05-20T05:56:51;7.53;;;3.92;;
27889;SDS011;15238;49.082;9.102;2023-05-20T05:58:52;11.90;;;3.45;;
27889;SDS011;15238;49.082;9.102;2023-05-20T06:00:53;6.95;;;3.50;;
27889;SDS011;15238;49.082;9.102;2023-05-20T06:02:53;6.40;;;3.80;;
27889;SDS011;15238;49.082;9.102;2023-05-20T06:04:54;9.25;;;3.42;;
27889;SDS011;15238;49.082;9.102;2023-05-20T06:06:55;4.68;;;4.07;;
27889;SDS011;15238;49.082;9.102;2023-05-20T06:08:55;5.40;;;4.07;;
27889;SDS011;15238;49.082;9.102;2023-05-20T06:10:56;6.45;;;4.07;;
27889;SDS011;15238;49.082;9.102;2023-05-20T06:12:57;5.43;;;3.97;;
27889;SDS011;15238;49.082;9.102;2023-05-20T06:14:57;4.95;;;3.67;;
27889;SDS011;15238;49.082;9.102;2023-05-20T06:16:58;6.55;;;3.97;;
27889;SDS011;15238;49.082;9.102;2023-05-20T06:18:59;4.70;;;3.42;;
27889;SDS011;15238;49.082;9.102;2023-05-20T06:21:01;6.18;;;3.78;;
27889;SDS011;15238;49.082;9.102;2023-05-20T06:23:02;5.90;;;3.60;;
27889;SDS011;15238;49.082;9.102;2023-05-20T06:25:02;7.32;;;3.60;;
27889;SDS011;15238;49.082;9.102;2023-05-20T06:27:03;6.15;;;4.03;;
27889;SDS011;15238;49.082;9.102;2023-05-20T06:29:04;4.72;;;3.60;;
27889;SDS011;15238;49.082;9.102;2023-05-20T06:31:05;5.88;;;4.00;;
27889;SDS011;15238;49.082;9.102;2023-05-20T06:33:05;4.85;;;3.35;;
27889;SDS011;15238;49.082;9.102;2023-05-20T06:35:06;6.03;;;4.07;;
27889;SDS011;15238;49.082;9.102;2023-05-20T06:37:07;6.70;;;3.85;;
27889;SDS011;15238;49.082;9.102;2023-05-20T06:39:07;8.52;;;3.72;;
27889;SDS011;15238;49.082;9.102;2023-05-20T06:41:11;4.47;;;3.88;;
27889;SDS011;15238;49.082;9.102;2023-05-20T06:43:12;8.80;;;3.75;;
27889;SDS011;15238;49.082;9.102;2023-05-20T06:45:12;5.88;;;3.70;;
27889;SDS011;15238;49.082;9.102;2023-05-20T06:47:13;5.38;;;4.03;;
27889;SDS011;15238;49.082;9.102;2023-05-20T06:49:16;4.43;;;3.70;;
27889;SDS011;15238;49.082;9.102;2023-05-20T06:51:17;5.05;;;3.65;;
27889;SDS011;15238;49.082;9.102;2023-05-20T06:53:17;10.48;;;4.43;;
27889;SDS011;15238;49.082;9.102;2023-05-20T06:55:18;5.07;;;3.88;;
27889;SDS011;15238;49.082;9.102;2023-05-20T06:57:18;6.32;;;4.65;;
27889;SDS011;15238;49.082;9.102;2023-05-20T06:59:19;4.90;;;3.80;;
27889;SDS011;15238;49.082;9.102;2023-05-20T07:01:20;5.20;;;3.90;;
27889;SDS011;15238;49.082;9.102;2023-05-20T07:03:20;7.07;;;3.92;;
27889;SDS011;15238;49.082;9.102;2023-05-20T07:05:22;5.05;;;3.88;;
27889;SDS011;15238;49.082;9.102;2023-05-20T07:07:23;4.85;;;3.72;;
27889;SDS011;15238;49.082;9.102;2023-05-20T07:09:24;5.22;;;4.18;;
27889;SDS011;15238;49.082;9.102;2023-05-20T07:11:24;4.72;;;3.55;;
27889;SDS011;15238;49.082;9.102;2023-05-20T07:13:25;7.40;;;3.80;;
27889;SDS011;15238;49.082;9.102;2023-05-20T07:15:26;5.53;;;4.40;;
27889;SDS011;15238;49.082;9.102;2023-05-20T07:17:26;5.40;;;4.25;;
27889;SDS011;15238;49.082;9.102;2023-05-20T07:19:28;4.55;;;4.00;;
27889;SDS011;15238;49.082;9.102;2023-05-20T07:21:28;6.38;;;4.15;;
27889;SDS011;15238;49.082;9.102;2023-05-20T07:23:29;7.63;;;3.60;;
27889;SDS011;15238;49.082;9.102;2023-05-20T07:25:30;5.47;;;4.53;;
27889;SDS011;15238;49.082;9.102;2023-05-20T07:27:31;5.00;;;4.07;;
27889;SDS011;15238;49.082;9.102;2023-05-20T07:29:31;8.68;;;4.25;;
27889;SDS011;15238;49.082;9.102;2023-05-20T07:31:32;5.75;;;4.28;;
27889;SDS011;15238;49.082;9.102;2023-05-20T07:33:32;6.88;;;4.15;;
27889;SDS011;15238;49.082;9.102;2023-05-20T07:35:33;5.68;;;4.10;;
27889;SDS011;15238;49.082;9.102;2023-05-20T07:37:33;5.20;;;3.88;;
27889;SDS011;15238;49.082;9.102;2023-05-20T07:39:34;4.35;;;3.95;;
27889;SDS011;15238;49.082;9.102;2023-05-20T07:41:35;5.95;;;4.55;;
27889;SDS011;15238;49.082;9.102;2023-05-20T07:43:37;6.35;;;4.35;;
27889;SDS011;15238;49.082;9.102;2023-05-20T07:45:37;6.85;;;4.45;;
27889;SDS011;15238;49.082;9.102;2023-05-20T07:47:38;9.23;;;4.57;;
27889;SDS011;15238;49.082;9.102;2023-05-20T07:49:38;10.23;;;4.03;;
27889;SDS011;15238;49.082;9.102;2023-05-20T07:51:39;4.82;;;4.22;;
27889;SDS011;15238;49.082;9.102;2023-05-20T07:53:40;8.25;;;4.90;;
27889;SDS011;15238;49.082;9.102;2023-05-20T07:55:40;6.80;;;4.35;;
27889;SDS011;15238;49.082;9.102;2023-05-20T07:57:41;5.43;;;4.32;;
27889;SDS011;15238;49.082;9.102;2023-05-20T07:59:41;6.10;;;4.63;;
27889;SDS011;15238;49.082;9.102;2023-05-20T08:01:42;5.35;;;4.35;;
27889;SDS011;15238;49.082;9.102;2023-05-20T08:03:42;7.13;;;4.75;;
27889;SDS011;15238;49.082;9.102;2023-05-20T08:05:43;6.50;;;4.78;;
27889;SDS011;15238;49.082;9.102;2023-05-20T08:07:44;4.85;;;3.88;;
27889;SDS011;15238;49.082;9.102;2023-05-20T08:09:44;7.10;;;4.65;;
27889;SDS011;15238;49.082;9.102;2023-05-20T08:11:45;8.98;;;3.97;;
27889;SDS011;15238;49.082;9.102;2023-05-20T08:13:45;5.18;;;4.35;;
27889;SDS011;15238;49.082;9.102;2023-05-20T08:15:46;9.35;;;4.35;;
27889;SDS011;15238;49.082;9.102;2023-05-20T08:17:47;5.50;;;4.63;;
27889;SDS011;15238;49.082;9.102;2023-05-20T08:19:48;5.25;;;3.92;;
27889;SDS011;15238;49.082;9.102;2023-05-20T08:21:48;6.90;;;4.38;;
27889;SDS011;15238;49.082;9.102;2023-05-20T08:23:49;4.80;;;3.88;;
27889;SDS011;15238;49.082;9.102;2023-05-20T08:25:50;5.38;;;4.07;;
27889;SDS011;15238;49.082;9.102;2023-05-20T08:27:50;5.32;;;4.25;;
27889;SDS011;15238;49.082;9.102;2023-05-20T08:29:51;5.68;;;4.40;;
27889;SDS011;15238;49.082;9.102;2023-05-20T08:31:51;6.65;;;4.32;;
27889;SDS011;15238;49.082;9.102;2023-05-20T08:33:52;5.25;;;4.20;;
27889;SDS011;15238;49.082;9.102;2023-05-20T08:35:52;7.03;;;3.90;;
27889;SDS011;15238;49.082;9.102;2023-05-20T08:37:53;13.52;;;4.88;;
27889;SDS011;15238;49.082;9.102;2023-05-20T08:39:54;6.15;;;4.30;;
27889;SDS011;15238;49.082;9.102;2023-05-20T08:41:55;4.70;;;4.25;;
27889;SDS011;15238;49.082;9.102;2023-05-20T08:43:58;5.93;;;4.25;;
27889;SDS011;15238;49.082;9.102;2023-05-20T08:46:00;8.05;;;4.40;;
27889;SDS011;15238;49.082;9.102;2023-05-20T08:48:04;6.47;;;4.45;;
27889;SDS011;15238;49.082;9.102;2023-05-20T08:50:05;5.32;;;4.28;;
27889;SDS011;15238;49.082;9.102;2023-05-20T08:52:06;4.88;;;4.18;;
27889;SDS011;15238;49.082;9.102;2023-05-20T08:54:08;6.95;;;4.38;;
27889;SDS011;15238;49.082;9.102;2023-05-20T08:56:10;5.53;;;4.30;;
27889;SDS011;15238;49.082;9.102;2023-05-20T08:58:14;5.32;;;3.97;;
27889;SDS011;15238;49.082;9.102;2023-05-20T09:00:15;4.55;;;3.83;;
27889;SDS011;15238;49.082;9.102;2023-05-20T09:02:17;6.70;;;4.22;;
27889;SDS011;15238;49.082;9.102;2023-05-20T09:04:17;4.65;;;3.97;;
27889;SDS011;15238;49.082;9.102;2023-05-20T09:06:18;4.80;;;4.30;;
27889;SDS011;15238;49.082;9.102;2023-05-20T09:08:19;6.40;;;4.18;;
27889;SDS011;15238;49.082;9.102;2023-05-20T09:10:25;4.97;;;4.35;;
27889;SDS011;15238;49.082;9.102;2023-05-20T09:12:26;6.38;;;3.92;;
27889;SDS011;15238;49.082;9.102;2023-05-20T09:14:26;5.72;;;4.40;;
27889;SDS011;15238;49.082;9.102;2023-05-20T09:16:27;10.98;;;4.05;;
27889;SDS011;15238;49.082;9.102;2023-05-20T09:18:28;6.82;;;4.22;;
27889;SDS011;15238;49.082;9.102;2023-05-20T09:20:29;7.35;;;4.40;;
27889;SDS011;15238;49.082;9.102;2023-05-20T09:22:31;5.57;;;4.28;;
27889;SDS011;15238;49.082;9.102;2023-05-20T09:24:31;8.65;;;4.20;;
27889;SDS011;15238;49.082;9.102;2023-05-20T09:26:32;6.18;;;4.35;;
27889;SDS011;15238;49.082;9.102;2023-05-20T09:28:33;5.78;;;4.20;;
27889;SDS011;15238;49.082;9.102;2023-05-20T09:30:37;4.75;;;3.85;;
27889;SDS011;15238;49.082;9.102;2023-05-20T09:32:37;7.10;;;4.20;;
27889;SDS011;15238;49.082;9.102;2023-05-20T09:34:38;5.55;;;3.85;;
27889;SDS011;15238;49.082;9.102;2023-05-20T09:36:41;7.22;;;4.18;;
27889;SDS011;15238;49.082;9.102;2023-05-20T09:38:43;5.07;;;3.67;;
27889;SDS011;15238;49.082;9.102;2023-05-20T09:40:46;6.63;;;4.63;;
27889;SDS011;15238;49.082;9.102;2023-05-20T09:44:56;7.30;;;4.55;;
27889;SDS011;15238;49.082;9.102;2023-05-20T09:46:57;5.65;;;4.03;;
27889;SDS011;15238;49.082;9.102;2023-05-20T09:49:00;5.05;;;4.43;;
27889;SDS011;15238;49.082;9.102;2023-05-20T09:51:02;5.55;;;4.20;;
27889;SDS011;15238;49.082;9.102;2023-05-20T09:53:04;6.15;;;4.55;;
27889;SDS011;15238;49.082;9.102;2023-05-20T09:55:05;5.93;;;4.88;;
27889;SDS011;15238;49.082;9.102;2023-05-20T09:57:07;6.50;;;4.50;;
27889;SDS011;15238;49.082;9.102;2023-05-20T09:59:08;6.18;;;4.47;;
27889;SDS011;15238;49.082;9.102;2023-05-20T10:01:10;8.70;;;4.82;;
27889;SDS011;15238;49.082;9.102;2023-05-20T10:03:11;4.80;;;4.38;;
27889;SDS011;15238;49.082;9.102;2023-05-20T10:05:22;5.50;;;4.50;;
27889;SDS011;15238;49.082;9.102;2023-05-20T10:10:05;6.70;;;4.40;;
27889;SDS011;15238;49.082;9.102;2023-05-20T10:16:55;7.47;;;4.60;;
27889;SDS011;15238;49.082;9.102;2023-05-20T10:19:11;6.35;;;4.25;;
27889;SDS011;15238;49.082;9.102;2023-05-20T10:21:16;5.50;;;4.45;;
27889;SDS011;15238;49.082;9.102;2023-05-20T10:25:30;6.05;;;4.10;;
27889;SDS011;15238;49.082;9.102;2023-05-20T10:27:40;5.10;;;4.07;;
27889;SDS011;15238;49.082;9.102;2023-05-20T10:29:51;4.63;;;4.10;;
27889;SDS011;15238;49.082;9.102;2023-05-20T10:31:52;6.05;;;4.25;;
27889;SDS011;15238;49.082;9.102;2023-05-20T10:33:52;7.68;;;4.30;;
27889;SDS011;15238;49.082;9.102;2023-05-20T10:35:54;23.73;;;5.43;;
27889;SDS011;15238;49.082;9.102;2023-05-20T10:38:07;7.88;;;3.90;;
27889;SDS011;15238;49.082;9.102;2023-05-20T10:40:12;5.13;;;4.18;;
27889;SDS011;15238;49.082;9.102;2023-05-20T10:42:14;6.90;;;4.45;;
27889;SDS011;15238;49.082;9.102;2023-05-20T10:44:14;8.13;;;4.47;;
27889;SDS011;15238;49.082;9.102;2023-05-20T10:46:17;6.35;;;4.03;;
27889;SDS011;15238;49.082;9.102;2023-05-20T10:48:28;4.72;;;3.97;;
27889;SDS011;15238;49.082;9.102;2023-05-20T10:50:36;7.40;;;4.30;;
27889;SDS011;15238;49.082;9.102;2023-05-20T10:52:39;5.07;;;4.40;;
27889;SDS011;15238;49.082;9.102;2023-05-20T10:54:52;6.38;;;4.43;;
27889;SDS011;15238;49.082;9.102;2023-05-20T10:56:53;6.22;;;4.28;;
27889;SDS011;15238;49.082;9.102;2023-05-20T10:58:54;5.32;;;4.53;;
27889;SDS011;15238;49.082;9.102;2023-05-20T11:00:55;5.38;;;4.40;;
27889;SDS011;15238;49.082;9.102;2023-05-20T11:02:56;7.55;;;5.20;;
27889;SDS011;15238;49.082;9.102;2023-05-20T11:04:57;7.50;;;4.43;;
27889;SDS011;15238;49.082;9.102;2023-05-20T11:06:58;5.15;;;4.63;;
27889;SDS011;15238;49.082;9.102;2023-05-20T11:09:02;14.35;;;4.65;;
27889;SDS011;15238;49.082;9.102;2023-05-20T11:11:05;11.15;;;4.28;;
27889;SDS011;15238;49.082;9.102;2023-05-20T11:13:06;4.72;;;3.45;;
27889;SDS011;15238;49.082;9.102;2023-05-20T11:15:09;10.38;;;4.60;;
27889;SDS011;15238;49.082;9.102;2023-05-20T11:17:12;6.82;;;3.95;;
27889;SDS011;15238;49.082;9.102;2023-05-20T11:19:15;5.25;;;4.50;;
27889;SDS011;15238;49.082;9.102;2023-05-20T11:21:17;6.88;;;4.82;;
27889;SDS011;15238;49.082;9.102;2023-05-20T11:23:19;4.78;;;4.20;;
27889;SDS011;15238;49.082;9.102;2023-05-20T11:25:22;5.85;;;4.03;;
27889;SDS011;15238;49.082;9.102;2023-05-20T11:27:22;8.00;;;4.43;;
27889;SDS011;15238;49.082;9.102;2023-05-20T11:29:24;6.03;;;4.93;;
27889;SDS011;15238;49.082;9.102;2023-05-20T11:31:25;5.72;;;4.15;;
27889;SDS011;15238;49.082;9.102;2023-05-20T11:33:27;4.70;;;3.88;;
27889;SDS011;15238;49.082;9.102;2023-05-20T11:35:30;4.47;;;3.55;;
27889;SDS011;15238;49.082;9.102;2023-05-20T11:37:31;6.20;;;3.35;;
27889;SDS011;15238;49.082;9.102;2023-05-20T11:39:35;5.43;;;4.05;;
27889;SDS011;15238;49.082;9.102;2023-05-20T11:41:36;8.27;;;4.53;;
27889;SDS011;15238;49.082;9.102;2023-05-20T11:43:37;6.32;;;3.90;;
27889;SDS011;15238;49.082;9.102;2023-05-20T11:45:43;6.47;;;4.25;;
27889;SDS011;15238;49.082;9.102;2023-05-20T11:47:45;4.05;;;3.60;;
27889;SDS011;15238;49.082;9.102;2023-05-20T11:49:47;4.32;;;3.33;;
27889;SDS011;15238;49.082;9.102;2023-05-20T11:51:48;4.88;;;3.30;;
27889;SDS011;15238;49.082;9.102;2023-05-20T11:53:49;3.80;;;3.35;;
27889;SDS011;15238;49.082;9.102;2023-05-20T11:55:56;4.57;;;3.47;;
27889;SDS011;15238;49.082;9.102;2023-05-20T11:57:59;6.80;;;4.10;;
27889;SDS011;15238;49.082;9.102;2023-05-20T12:00:01;6.97;;;3.45;;
27889;SDS011;15238;49.082;9.102;2023-05-20T12:02:01;4.82;;;3.50;;
27889;SDS011;15238;49.082;9.102;2023-05-20T12:04:04;8.60;;;3.92;;
27889;SDS011;15238;49.082;9.102;2023-05-20T12:06:05;5.53;;;3.75;;
27889;SDS011;15238;49.082;9.102;2023-05-20T12:08:06;8.38;;;3.58;;
27889;SDS011;15238;49.082;9.102;2023-05-20T12:10:07;6.50;;;3.85;;
27889;SDS011;15238;49.082;9.102;2023-05-20T12:12:08;4.40;;;3.78;;
27889;SDS011;15238;49.082;9.102;2023-05-20T12:14:12;8.00;;;4.00;;
27889;SDS011;15238;49.082;9.102;2023-05-20T12:16:13;6.65;;;3.90;;
27889;SDS011;15238;49.082;9.102;2023-05-20T12:18:13;5.85;;;4.03;;
27889;SDS011;15238;49.082;9.102;2023-05-20T12:20:15;6.47;;;4.10;;
27889;SDS011;15238;49.082;9.102;2023-05-20T12:22:16;5.15;;;4.00;;
27889;SDS011;15238;49.082;9.102;2023-05-20T12:24:17;3.55;;;3.20;;
27889;SDS011;15238;49.082;9.102;2023-05-20T12:26:17;5.57;;;3.75;;